sensor_id;sensor_type;location;lat;lon;timestamp;temperature;humidity
21316;DHT22;10817;55.820;13.030;2024-03-22T00:02:02;6.00;99.90
21316;DHT22;10817;55.820;13.030;2024-03-22T00:04:28;6.00;99.90
21316;DHT22;10817;55.820;13.030;2024-03-22T00:06:56;7.10;99.90
21316;DHT22;10817;55.820;13.030;2024-03-22T00:09:22;6.00;99.90
21316;DHT22;10817;55.820;13.030;2024-03-22T00:11:48;6.00;99.90
21316;DHT22;10817;55.820;13.030;2024-03-22T00:14:14;5.90;99.90
21316;DHT22;10817;55.820;13.030;2024-03-22T00:16:41;6.00;99.90
21316;DHT22;10817;55.820;13.030;2024-03-22T00:19:07;5.90;99.90
21316;DHT22;10817;55.820;13.030;2024-03-22T00:21:34;6.00;99.90
21316;DHT22;10817;55.820;13.030;2024-03-22T00:24:02;5.90;99.90
21316;DHT22;10817;55.820;13.030;2024-03-22T00:26:29;6.00;99.90
21316;DHT22;10817;55.820;13.030;2024-03-22T00:28:55;5.90;99.90
21316;DHT22;10817;55.820;13.030;2024-03-22T00:31:23;5.90;99.90
21316;DHT22;10817;55.820;13.030;2024-03-22T00:33:49;6.00;99.90
21316;DHT22;10817;55.820;13.030;2024-03-22T00:36:16;5.90;99.90
21316;DHT22;10817;55.820;13.030;2024-03-22T00:38:41;5.90;99.90
21316;DHT22;10817;55.820;13.030;2024-03-22T00:41:09;5.80;99.90
21316;DHT22;10817;55.820;13.030;2024-03-22T00:43:35;5.80;99.90
21316;DHT22;10817;55.820;13.030;2024-03-22T00:46:02;5.80;99.90
21316;DHT22;10817;55.820;13.030;2024-03-22T00:48:28;5.80;99.90
21316;DHT22;10817;55.820;13.030;2024-03-22T00:50:55;5.90;99.90
21316;DHT22;10817;55.820;13.030;2024-03-22T00:53:21;5.80;99.90
21316;DHT22;10817;55.820;13.030;2024-03-22T00:55:47;5.90;99.90
21316;DHT22;10817;55.820;13.030;2024-03-22T00:58:18;8.30;99.90
21316;DHT22;10817;55.820;13.030;2024-03-22T01:00:45;5.80;99.90
21316;DHT22;10817;55.820;13.030;2024-03-22T01:03:11;5.80;99.90
21316;DHT22;10817;55.820;13.030;2024-03-22T01:05:43;5.70;99.90
21316;DHT22;10817;55.820;13.030;2024-03-22T01:08:12;7.60;99.90
21316;DHT22;10817;55.820;13.030;2024-03-22T01:10:49;4.00;99.90
21316;DHT22;10817;55.820;13.030;2024-03-22T01:13:15;7.10;99.90
21316;DHT22;10817;55.820;13.030;2024-03-22T01:15:44;5.60;99.90
21316;DHT22;10817;55.820;13.030;2024-03-22T01:18:11;4.80;99.90
21316;DHT22;10817;55.820;13.030;2024-03-22T01:20:38;5.50;99.90
21316;DHT22;10817;55.820;13.030;2024-03-22T01:23:04;5.50;99.90
21316;DHT22;10817;55.820;13.030;2024-03-22T01:25:31;5.50;99.90
21316;DHT22;10817;55.820;13.030;2024-03-22T01:27:56;5.50;99.90
21316;DHT22;10817;55.820;13.030;2024-03-22T01:30:23;5.40;99.90
21316;DHT22;10817;55.820;13.030;2024-03-22T01:32:52;5.40;99.90
21316;DHT22;10817;55.820;13.030;2024-03-22T01:35:19;5.40;99.90
21316;DHT22;10817;55.820;13.030;2024-03-22T01:37:45;5.30;99.90
21316;DHT22;10817;55.820;13.030;2024-03-22T01:40:13;5.30;99.90
21316;DHT22;10817;55.820;13.030;2024-03-22T01:42:39;5.30;99.90
21316;DHT22;10817;55.820;13.030;2024-03-22T01:45:06;5.30;99.90
21316;DHT22;10817;55.820;13.030;2024-03-22T01:47:33;5.30;99.90
21316;DHT22;10817;55.820;13.030;2024-03-22T01:50:01;5.30;99.90
21316;DHT22;10817;55.820;13.030;2024-03-22T01:52:27;5.30;99.90
21316;DHT22;10817;55.820;13.030;2024-03-22T01:54:55;5.30;99.90
21316;DHT22;10817;55.820;13.030;2024-03-22T01:57:20;5.40;99.90
21316;DHT22;10817;55.820;13.030;2024-03-22T01:59:49;5.40;99.90
21316;DHT22;10817;55.820;13.030;2024-03-22T02:02:17;5.40;99.90
21316;DHT22;10817;55.820;13.030;2024-03-22T02:04:44;5.40;99.90
21316;DHT22;10817;55.820;13.030;2024-03-22T02:07:11;5.40;99.90
21316;DHT22;10817;55.820;13.030;2024-03-22T02:09:38;5.40;99.90
21316;DHT22;10817;55.820;13.030;2024-03-22T02:12:04;5.40;99.90
21316;DHT22;10817;55.820;13.030;2024-03-22T02:14:30;5.40;99.90
21316;DHT22;10817;55.820;13.030;2024-03-22T02:16:56;5.40;99.90
21316;DHT22;10817;55.820;13.030;2024-03-22T02:19:23;5.40;99.90
21316;DHT22;10817;55.820;13.030;2024-03-22T02:21:49;5.40;99.90
21316;DHT22;10817;55.820;13.030;2024-03-22T02:24:17;5.50;99.90
21316;DHT22;10817;55.820;13.030;2024-03-22T02:26:43;5.50;99.90
21316;DHT22;10817;55.820;13.030;2024-03-22T02:29:10;5.40;99.90
21316;DHT22;10817;55.820;13.030;2024-03-22T02:31:35;5.50;99.90
21316;DHT22;10817;55.820;13.030;2024-03-22T02:34:02;5.60;99.90
21316;DHT22;10817;55.820;13.030;2024-03-22T02:36:28;5.60;99.90
21316;DHT22;10817;55.820;13.030;2024-03-22T02:38:55;5.60;99.90
21316;DHT22;10817;55.820;13.030;2024-03-22T02:41:22;5.70;99.90
21316;DHT22;10817;55.820;13.030;2024-03-22T02:43:49;5.70;99.90
21316;DHT22;10817;55.820;13.030;2024-03-22T02:46:15;5.70;99.90
21316;DHT22;10817;55.820;13.030;2024-03-22T02:48:42;5.80;99.90
21316;DHT22;10817;55.820;13.030;2024-03-22T02:51:07;5.80;99.90
21316;DHT22;10817;55.820;13.030;2024-03-22T02:53:34;5.80;99.90
21316;DHT22;10817;55.820;13.030;2024-03-22T02:56:00;5.80;99.90
21316;DHT22;10817;55.820;13.030;2024-03-22T02:58:28;5.80;99.90
21316;DHT22;10817;55.820;13.030;2024-03-22T03:00:54;5.80;99.90
21316;DHT22;10817;55.820;13.030;2024-03-22T03:03:21;5.80;99.90
21316;DHT22;10817;55.820;13.030;2024-03-22T03:05:47;5.80;99.90
21316;DHT22;10817;55.820;13.030;2024-03-22T03:08:14;7.50;99.90
21316;DHT22;10817;55.820;13.030;2024-03-22T03:10:39;5.80;99.90
21316;DHT22;10817;55.820;13.030;2024-03-22T03:13:06;5.80;99.90
21316;DHT22;10817;55.820;13.030;2024-03-22T03:15:33;5.80;99.90
21316;DHT22;10817;55.820;13.030;2024-03-22T03:18:00;5.70;99.90
21316;DHT22;10817;55.820;13.030;2024-03-22T03:20:26;6.70;99.90
21316;DHT22;10817;55.820;13.030;2024-03-22T03:22:53;5.70;99.90
21316;DHT22;10817;55.820;13.030;2024-03-22T03:25:19;5.70;99.90
21316;DHT22;10817;55.820;13.030;2024-03-22T03:27:45;5.70;99.90
21316;DHT22;10817;55.820;13.030;2024-03-22T03:30:11;5.80;99.90
21316;DHT22;10817;55.820;13.030;2024-03-22T03:32:40;6.20;99.90
21316;DHT22;10817;55.820;13.030;2024-03-22T03:35:06;5.80;99.90
21316;DHT22;10817;55.820;13.030;2024-03-22T03:37:33;5.80;99.90
21316;DHT22;10817;55.820;13.030;2024-03-22T03:39:58;5.80;99.90
21316;DHT22;10817;55.820;13.030;2024-03-22T03:42:25;5.80;99.90
21316;DHT22;10817;55.820;13.030;2024-03-22T03:44:51;5.80;99.90
21316;DHT22;10817;55.820;13.030;2024-03-22T03:47:18;5.70;99.90
21316;DHT22;10817;55.820;13.030;2024-03-22T03:49:46;5.80;99.90
21316;DHT22;10817;55.820;13.030;2024-03-22T03:52:13;5.70;99.90
21316;DHT22;10817;55.820;13.030;2024-03-22T03:54:39;5.80;99.90
21316;DHT22;10817;55.820;13.030;2024-03-22T03:57:06;5.80;99.90
21316;DHT22;10817;55.820;13.030;2024-03-22T03:59:31;5.80;99.90
21316;DHT22;10817;55.820;13.030;2024-03-22T04:01:58;5.80;99.90
21316;DHT22;10817;55.820;13.030;2024-03-22T04:04:24;5.80;99.90
21316;DHT22;10817;55.820;13.030;2024-03-22T04:06:52;5.80;99.90
21316;DHT22;10817;55.820;13.030;2024-03-22T04:09:18;5.90;99.90
21316;DHT22;10817;55.820;13.030;2024-03-22T04:11:45;5.90;99.90
21316;DHT22;10817;55.820;13.030;2024-03-22T04:14:10;5.90;99.90
21316;DHT22;10817;55.820;13.030;2024-03-22T04:16:37;5.90;99.90
21316;DHT22;10817;55.820;13.030;2024-03-22T04:19:03;5.90;99.90
21316;DHT22;10817;55.820;13.030;2024-03-22T04:21:30;5.90;99.90
21316;DHT22;10817;55.820;13.030;2024-03-22T04:23:57;5.90;99.90
21316;DHT22;10817;55.820;13.030;2024-03-22T04:26:24;5.90;99.90
21316;DHT22;10817;55.820;13.030;2024-03-22T04:28:50;6.00;99.90
21316;DHT22;10817;55.820;13.030;2024-03-22T04:31:16;6.00;99.90
21316;DHT22;10817;55.820;13.030;2024-03-22T04:33:42;6.00;99.90
21316;DHT22;10817;55.820;13.030;2024-03-22T04:36:09;5.90;99.90
21316;DHT22;10817;55.820;13.030;2024-03-22T04:38:35;5.90;99.90
21316;DHT22;10817;55.820;13.030;2024-03-22T04:41:03;5.90;99.90
21316;DHT22;10817;55.820;13.030;2024-03-22T04:43:30;5.90;99.90
21316;DHT22;10817;55.820;13.030;2024-03-22T04:45:57;5.90;99.90
21316;DHT22;10817;55.820;13.030;2024-03-22T04:48:23;5.90;99.90
21316;DHT22;10817;55.820;13.030;2024-03-22T04:50:52;7.10;99.90
21316;DHT22;10817;55.820;13.030;2024-03-22T04:53:18;5.80;99.90
21316;DHT22;10817;55.820;13.030;2024-03-22T04:55:46;5.80;99.90
21316;DHT22;10817;55.820;13.030;2024-03-22T04:58:15;5.90;99.90
21316;DHT22;10817;55.820;13.030;2024-03-22T05:00:42;5.90;99.90
21316;DHT22;10817;55.820;13.030;2024-03-22T05:03:09;5.90;99.90
21316;DHT22;10817;55.820;13.030;2024-03-22T05:05:36;5.90;99.90
21316;DHT22;10817;55.820;13.030;2024-03-22T05:08:02;6.80;99.90
21316;DHT22;10817;55.820;13.030;2024-03-22T05:10:29;5.80;99.90
21316;DHT22;10817;55.820;13.030;2024-03-22T05:12:55;5.80;99.90
21316;DHT22;10817;55.820;13.030;2024-03-22T05:15:24;5.80;99.90
21316;DHT22;10817;55.820;13.030;2024-03-22T05:17:51;5.80;99.90
21316;DHT22;10817;55.820;13.030;2024-03-22T05:20:18;5.80;99.90
21316;DHT22;10817;55.820;13.030;2024-03-22T05:22:44;5.80;99.90
21316;DHT22;10817;55.820;13.030;2024-03-22T05:25:11;5.80;99.90
21316;DHT22;10817;55.820;13.030;2024-03-22T05:27:38;5.80;99.90
21316;DHT22;10817;55.820;13.030;2024-03-22T05:30:05;5.80;99.90
21316;DHT22;10817;55.820;13.030;2024-03-22T05:32:33;5.80;99.90
21316;DHT22;10817;55.820;13.030;2024-03-22T05:34:59;5.80;99.90
21316;DHT22;10817;55.820;13.030;2024-03-22T05:37:25;5.80;99.90
21316;DHT22;10817;55.820;13.030;2024-03-22T05:39:52;5.80;99.90
21316;DHT22;10817;55.820;13.030;2024-03-22T05:42:18;5.80;99.90
21316;DHT22;10817;55.820;13.030;2024-03-22T05:44:45;5.80;99.90
21316;DHT22;10817;55.820;13.030;2024-03-22T05:47:11;5.90;99.90
21316;DHT22;10817;55.820;13.030;2024-03-22T05:49:39;5.90;99.90
21316;DHT22;10817;55.820;13.030;2024-03-22T05:52:05;5.90;99.90
21316;DHT22;10817;55.820;13.030;2024-03-22T05:54:32;5.80;99.90
21316;DHT22;10817;55.820;13.030;2024-03-22T05:56:58;5.80;99.90
21316;DHT22;10817;55.820;13.030;2024-03-22T05:59:26;5.80;99.90
21316;DHT22;10817;55.820;13.030;2024-03-22T06:01:53;5.90;99.90
21316;DHT22;10817;55.820;13.030;2024-03-22T06:04:20;5.90;99.90
21316;DHT22;10817;55.820;13.030;2024-03-22T06:06:47;5.90;99.90
21316;DHT22;10817;55.820;13.030;2024-03-22T06:09:13;5.90;99.90
21316;DHT22;10817;55.820;13.030;2024-03-22T06:11:44;5.90;99.90
21316;DHT22;10817;55.820;13.030;2024-03-22T06:14:11;5.90;99.90
21316;DHT22;10817;55.820;13.030;2024-03-22T06:16:37;5.90;99.90
21316;DHT22;10817;55.820;13.030;2024-03-22T06:19:04;5.90;99.90
21316;DHT22;10817;55.820;13.030;2024-03-22T06:21:29;6.00;99.90
21316;DHT22;10817;55.820;13.030;2024-03-22T06:23:57;6.00;99.90
21316;DHT22;10817;55.820;13.030;2024-03-22T06:26:23;6.10;99.90
21316;DHT22;10817;55.820;13.030;2024-03-22T06:28:50;6.20;99.90
21316;DHT22;10817;55.820;13.030;2024-03-22T06:31:16;6.30;99.90
21316;DHT22;10817;55.820;13.030;2024-03-22T06:33:43;6.30;99.90
21316;DHT22;10817;55.820;13.030;2024-03-22T06:36:09;6.40;99.90
21316;DHT22;10817;55.820;13.030;2024-03-22T06:38:35;6.50;99.90
21316;DHT22;10817;55.820;13.030;2024-03-22T06:41:03;6.50;99.90
21316;DHT22;10817;55.820;13.030;2024-03-22T06:43:30;6.40;99.90
21316;DHT22;10817;55.820;13.030;2024-03-22T06:45:55;6.50;99.90
21316;DHT22;10817;55.820;13.030;2024-03-22T06:48:22;7.90;99.90
21316;DHT22;10817;55.820;13.030;2024-03-22T06:50:48;7.30;99.90
21316;DHT22;10817;55.820;13.030;2024-03-22T06:53:15;7.40;99.90
21316;DHT22;10817;55.820;13.030;2024-03-22T06:55:41;6.60;99.90
21316;DHT22;10817;55.820;13.030;2024-03-22T06:58:11;6.50;99.90
21316;DHT22;10817;55.820;13.030;2024-03-22T07:00:37;8.80;99.90
21316;DHT22;10817;55.820;13.030;2024-03-22T07:03:05;7.60;99.90
21316;DHT22;10817;55.820;13.030;2024-03-22T07:05:47;7.40;99.90
21316;DHT22;10817;55.820;13.030;2024-03-22T07:08:20;6.20;99.90
21316;DHT22;10817;55.820;13.030;2024-03-22T07:13:53;6.70;99.90
21316;DHT22;10817;55.820;13.030;2024-03-22T07:16:19;7.30;99.90
21316;DHT22;10817;55.820;13.030;2024-03-22T07:18:46;7.30;99.90
21316;DHT22;10817;55.820;13.030;2024-03-22T07:21:14;6.70;99.90
21316;DHT22;10817;55.820;13.030;2024-03-22T07:23:41;6.70;99.90
21316;DHT22;10817;55.820;13.030;2024-03-22T07:26:07;6.70;99.90
21316;DHT22;10817;55.820;13.030;2024-03-22T07:28:40;6.80;99.90
21316;DHT22;10817;55.820;13.030;2024-03-22T07:31:09;8.80;99.90
21316;DHT22;10817;55.820;13.030;2024-03-22T07:33:36;6.60;99.90
21316;DHT22;10817;55.820;13.030;2024-03-22T07:36:02;6.80;99.90
21316;DHT22;10817;55.820;13.030;2024-03-22T07:38:29;6.80;99.90
21316;DHT22;10817;55.820;13.030;2024-03-22T07:40:55;9.20;99.90
21316;DHT22;10817;55.820;13.030;2024-03-22T07:43:22;6.90;99.90
21316;DHT22;10817;55.820;13.030;2024-03-22T07:45:47;6.90;99.90
21316;DHT22;10817;55.820;13.030;2024-03-22T07:48:16;6.90;99.90
21316;DHT22;10817;55.820;13.030;2024-03-22T07:50:42;7.00;99.90
21316;DHT22;10817;55.820;13.030;2024-03-22T07:53:08;7.00;99.90
21316;DHT22;10817;55.820;13.030;2024-03-22T07:55:34;7.10;99.90
21316;DHT22;10817;55.820;13.030;2024-03-22T07:58:01;7.10;99.90
21316;DHT22;10817;55.820;13.030;2024-03-22T08:00:28;7.10;99.90
21316;DHT22;10817;55.820;13.030;2024-03-22T08:02:55;7.10;99.90
21316;DHT22;10817;55.820;13.030;2024-03-22T08:05:22;7.10;99.90
21316;DHT22;10817;55.820;13.030;2024-03-22T08:07:49;5.70;99.90
21316;DHT22;10817;55.820;13.030;2024-03-22T08:10:15;7.10;99.90
21316;DHT22;10817;55.820;13.030;2024-03-22T08:12:42;7.20;99.90
21316;DHT22;10817;55.820;13.030;2024-03-22T08:15:08;7.10;99.90
21316;DHT22;10817;55.820;13.030;2024-03-22T08:17:35;7.10;99.90
21316;DHT22;10817;55.820;13.030;2024-03-22T08:20:01;7.10;99.90
21316;DHT22;10817;55.820;13.030;2024-03-22T08:22:30;7.10;99.90
21316;DHT22;10817;55.820;13.030;2024-03-22T08:24:56;7.10;99.90
21316;DHT22;10817;55.820;13.030;2024-03-22T08:27:23;7.20;99.90
21316;DHT22;10817;55.820;13.030;2024-03-22T08:29:50;7.20;99.90
21316;DHT22;10817;55.820;13.030;2024-03-22T08:32:17;7.20;99.90
21316;DHT22;10817;55.820;13.030;2024-03-22T08:34:42;7.20;99.90
21316;DHT22;10817;55.820;13.030;2024-03-22T08:37:09;7.30;99.90
21316;DHT22;10817;55.820;13.030;2024-03-22T08:39:37;7.30;99.90
21316;DHT22;10817;55.820;13.030;2024-03-22T08:42:04;7.40;99.90
21316;DHT22;10817;55.820;13.030;2024-03-22T08:44:31;7.40;99.90
21316;DHT22;10817;55.820;13.030;2024-03-22T08:46:58;7.40;99.90
21316;DHT22;10817;55.820;13.030;2024-03-22T08:49:23;7.40;99.90
21316;DHT22;10817;55.820;13.030;2024-03-22T08:51:50;7.50;99.90
21316;DHT22;10817;55.820;13.030;2024-03-22T08:54:16;7.50;99.90
21316;DHT22;10817;55.820;13.030;2024-03-22T08:56:44;7.50;99.90
21316;DHT22;10817;55.820;13.030;2024-03-22T08:59:10;7.60;99.90
21316;DHT22;10817;55.820;13.030;2024-03-22T09:01:36;7.60;99.90
21316;DHT22;10817;55.820;13.030;2024-03-22T09:04:03;7.60;99.90
21316;DHT22;10817;55.820;13.030;2024-03-22T09:06:32;7.70;99.90
21316;DHT22;10817;55.820;13.030;2024-03-22T09:09:01;7.60;99.90
21316;DHT22;10817;55.820;13.030;2024-03-22T09:11:29;7.90;99.90
21316;DHT22;10817;55.820;13.030;2024-03-22T09:13:56;7.80;99.90
21316;DHT22;10817;55.820;13.030;2024-03-22T09:16:23;7.90;99.90
21316;DHT22;10817;55.820;13.030;2024-03-22T09:18:50;7.90;99.90
21316;DHT22;10817;55.820;13.030;2024-03-22T09:21:16;7.90;99.90
21316;DHT22;10817;55.820;13.030;2024-03-22T09:23:43;7.90;99.90
21316;DHT22;10817;55.820;13.030;2024-03-22T09:26:09;8.00;99.90
21316;DHT22;10817;55.820;13.030;2024-03-22T09:28:36;8.00;99.90
21316;DHT22;10817;55.820;13.030;2024-03-22T09:31:06;8.00;99.90
21316;DHT22;10817;55.820;13.030;2024-03-22T09:33:34;8.10;99.90
21316;DHT22;10817;55.820;13.030;2024-03-22T09:36:00;8.10;99.90
21316;DHT22;10817;55.820;13.030;2024-03-22T09:38:27;8.00;99.90
21316;DHT22;10817;55.820;13.030;2024-03-22T09:40:53;8.00;99.90
21316;DHT22;10817;55.820;13.030;2024-03-22T09:43:21;8.20;99.90
21316;DHT22;10817;55.820;13.030;2024-03-22T09:45:47;8.20;99.90
21316;DHT22;10817;55.820;13.030;2024-03-22T09:48:22;8.10;99.90
21316;DHT22;10817;55.820;13.030;2024-03-22T09:50:52;9.30;99.90
21316;DHT22;10817;55.820;13.030;2024-03-22T09:53:19;8.20;99.90
21316;DHT22;10817;55.820;13.030;2024-03-22T09:55:46;8.20;99.90
21316;DHT22;10817;55.820;13.030;2024-03-22T09:58:13;8.20;99.90
21316;DHT22;10817;55.820;13.030;2024-03-22T10:00:40;8.20;99.90
21316;DHT22;10817;55.820;13.030;2024-03-22T10:03:07;8.10;99.90
21316;DHT22;10817;55.820;13.030;2024-03-22T10:05:36;8.10;99.90
21316;DHT22;10817;55.820;13.030;2024-03-22T10:08:04;8.10;99.90
21316;DHT22;10817;55.820;13.030;2024-03-22T10:10:31;8.00;99.90
21316;DHT22;10817;55.820;13.030;2024-03-22T10:13:00;8.10;99.90
21316;DHT22;10817;55.820;13.030;2024-03-22T10:15:26;10.00;99.90
21316;DHT22;10817;55.820;13.030;2024-03-22T10:17:53;8.10;99.90
21316;DHT22;10817;55.820;13.030;2024-03-22T10:20:21;8.20;99.90
21316;DHT22;10817;55.820;13.030;2024-03-22T10:22:55;8.10;99.90
21316;DHT22;10817;55.820;13.030;2024-03-22T10:25:21;8.10;99.90
21316;DHT22;10817;55.820;13.030;2024-03-22T10:27:49;8.20;99.90
21316;DHT22;10817;55.820;13.030;2024-03-22T10:30:16;8.20;99.90
21316;DHT22;10817;55.820;13.030;2024-03-22T10:32:44;8.80;99.90
21316;DHT22;10817;55.820;13.030;2024-03-22T10:35:12;8.30;99.90
21316;DHT22;10817;55.820;13.030;2024-03-22T10:37:40;8.40;99.90
21316;DHT22;10817;55.820;13.030;2024-03-22T10:40:09;8.40;99.90
21316;DHT22;10817;55.820;13.030;2024-03-22T10:42:37;8.40;99.90
21316;DHT22;10817;55.820;13.030;2024-03-22T10:45:05;8.50;99.90
21316;DHT22;10817;55.820;13.030;2024-03-22T10:47:33;8.50;99.90
21316;DHT22;10817;55.820;13.030;2024-03-22T10:50:06;8.50;99.90
21316;DHT22;10817;55.820;13.030;2024-03-22T10:52:37;8.50;99.90
21316;DHT22;10817;55.820;13.030;2024-03-22T10:55:05;8.50;99.90
21316;DHT22;10817;55.820;13.030;2024-03-22T10:57:34;8.50;99.90
21316;DHT22;10817;55.820;13.030;2024-03-22T11:00:04;8.50;99.90
21316;DHT22;10817;55.820;13.030;2024-03-22T11:02:35;8.50;99.90
21316;DHT22;10817;55.820;13.030;2024-03-22T11:05:02;8.60;99.90
21316;DHT22;10817;55.820;13.030;2024-03-22T11:07:29;8.70;99.90
21316;DHT22;10817;55.820;13.030;2024-03-22T11:09:57;8.60;99.90
21316;DHT22;10817;55.820;13.030;2024-03-22T11:12:24;10.00;99.90
21316;DHT22;10817;55.820;13.030;2024-03-22T11:14:54;8.70;99.90
21316;DHT22;10817;55.820;13.030;2024-03-22T11:17:20;8.70;99.90
21316;DHT22;10817;55.820;13.030;2024-03-22T11:19:50;8.80;99.90
21316;DHT22;10817;55.820;13.030;2024-03-22T11:22:16;8.90;99.90
21316;DHT22;10817;55.820;13.030;2024-03-22T11:24:43;8.80;99.90
21316;DHT22;10817;55.820;13.030;2024-03-22T11:27:11;8.80;99.90
21316;DHT22;10817;55.820;13.030;2024-03-22T11:29:38;8.80;99.90
21316;DHT22;10817;55.820;13.030;2024-03-22T11:32:08;9.00;99.90
21316;DHT22;10817;55.820;13.030;2024-03-22T11:34:35;8.70;99.90
21316;DHT22;10817;55.820;13.030;2024-03-22T11:37:01;8.70;99.90
21316;DHT22;10817;55.820;13.030;2024-03-22T11:39:28;8.70;99.90
21316;DHT22;10817;55.820;13.030;2024-03-22T11:41:54;8.70;99.90
21316;DHT22;10817;55.820;13.030;2024-03-22T11:44:22;8.70;99.90
21316;DHT22;10817;55.820;13.030;2024-03-22T11:46:48;8.70;99.90
21316;DHT22;10817;55.820;13.030;2024-03-22T11:49:17;8.60;99.90
21316;DHT22;10817;55.820;13.030;2024-03-22T11:51:43;8.60;99.90
21316;DHT22;10817;55.820;13.030;2024-03-22T11:54:11;8.60;99.90
21316;DHT22;10817;55.820;13.030;2024-03-22T11:56:37;8.60;99.90
21316;DHT22;10817;55.820;13.030;2024-03-22T11:59:06;8.50;99.90
21316;DHT22;10817;55.820;13.030;2024-03-22T12:01:33;8.50;99.90
21316;DHT22;10817;55.820;13.030;2024-03-22T12:04:00;8.40;99.90
21316;DHT22;10817;55.820;13.030;2024-03-22T12:06:27;8.40;99.90
21316;DHT22;10817;55.820;13.030;2024-03-22T12:08:53;8.40;99.90
21316;DHT22;10817;55.820;13.030;2024-03-22T12:11:19;8.40;99.90
21316;DHT22;10817;55.820;13.030;2024-03-22T12:13:46;8.40;99.90
21316;DHT22;10817;55.820;13.030;2024-03-22T12:16:12;8.30;99.90
21316;DHT22;10817;55.820;13.030;2024-03-22T12:18:39;8.30;99.90
21316;DHT22;10817;55.820;13.030;2024-03-22T12:21:05;8.40;99.90
21316;DHT22;10817;55.820;13.030;2024-03-22T12:23:33;8.30;99.90
21316;DHT22;10817;55.820;13.030;2024-03-22T12:26:01;8.40;99.90
21316;DHT22;10817;55.820;13.030;2024-03-22T12:28:27;8.40;99.90
21316;DHT22;10817;55.820;13.030;2024-03-22T12:30:54;8.40;99.90
21316;DHT22;10817;55.820;13.030;2024-03-22T12:33:21;8.30;99.90
21316;DHT22;10817;55.820;13.030;2024-03-22T12:35:47;8.40;99.90
21316;DHT22;10817;55.820;13.030;2024-03-22T12:38:14;8.40;99.90
21316;DHT22;10817;55.820;13.030;2024-03-22T12:40:41;8.30;99.90
21316;DHT22;10817;55.820;13.030;2024-03-22T12:43:09;8.30;99.90
21316;DHT22;10817;55.820;13.030;2024-03-22T12:45:36;8.20;99.90
21316;DHT22;10817;55.820;13.030;2024-03-22T12:48:03;8.40;99.90
21316;DHT22;10817;55.820;13.030;2024-03-22T12:50:29;8.30;99.90
21316;DHT22;10817;55.820;13.030;2024-03-22T12:52:57;8.30;99.90
21316;DHT22;10817;55.820;13.030;2024-03-22T12:55:23;8.30;99.90
21316;DHT22;10817;55.820;13.030;2024-03-22T12:57:52;8.30;99.90
21316;DHT22;10817;55.820;13.030;2024-03-22T13:00:19;8.20;99.90
21316;DHT22;10817;55.820;13.030;2024-03-22T13:02:46;8.10;99.90
21316;DHT22;10817;55.820;13.030;2024-03-22T13:05:12;8.20;99.90
21316;DHT22;10817;55.820;13.030;2024-03-22T13:07:40;8.20;99.90
21316;DHT22;10817;55.820;13.030;2024-03-22T13:10:12;8.20;99.90
21316;DHT22;10817;55.820;13.030;2024-03-22T13:12:42;8.30;99.90
21316;DHT22;10817;55.820;13.030;2024-03-22T13:15:09;10.10;99.90
21316;DHT22;10817;55.820;13.030;2024-03-22T13:17:36;8.40;99.90
21316;DHT22;10817;55.820;13.030;2024-03-22T13:20:03;8.30;99.90
21316;DHT22;10817;55.820;13.030;2024-03-22T13:22:36;8.50;99.90
21316;DHT22;10817;55.820;13.030;2024-03-22T13:25:01;8.50;99.90
21316;DHT22;10817;55.820;13.030;2024-03-22T13:27:34;8.50;99.90
21316;DHT22;10817;55.820;13.030;2024-03-22T13:30:03;8.90;99.90
21316;DHT22;10817;55.820;13.030;2024-03-22T13:32:41;8.60;99.90
21316;DHT22;10817;55.820;13.030;2024-03-22T13:35:13;10.70;99.90
21316;DHT22;10817;55.820;13.030;2024-03-22T13:37:43;8.00;99.90
21316;DHT22;10817;55.820;13.030;2024-03-22T13:40:09;7.90;99.90
21316;DHT22;10817;55.820;13.030;2024-03-22T13:42:37;8.20;99.90
21316;DHT22;10817;55.820;13.030;2024-03-22T13:45:03;9.50;99.90
21316;DHT22;10817;55.820;13.030;2024-03-22T13:47:30;8.30;99.90
21316;DHT22;10817;55.820;13.030;2024-03-22T13:49:58;8.30;99.90
21316;DHT22;10817;55.820;13.030;2024-03-22T13:52:25;9.90;99.90
21316;DHT22;10817;55.820;13.030;2024-03-22T13:54:51;9.20;99.90
21316;DHT22;10817;55.820;13.030;2024-03-22T13:57:18;9.70;99.90
21316;DHT22;10817;55.820;13.030;2024-03-22T13:59:44;10.30;99.90
21316;DHT22;10817;55.820;13.030;2024-03-22T14:02:11;10.20;99.90
21316;DHT22;10817;55.820;13.030;2024-03-22T14:04:37;11.70;99.90
21316;DHT22;10817;55.820;13.030;2024-03-22T14:07:05;11.50;99.90
21316;DHT22;10817;55.820;13.030;2024-03-22T14:09:33;11.80;99.90
21316;DHT22;10817;55.820;13.030;2024-03-22T14:12:00;13.80;99.90
21316;DHT22;10817;55.820;13.030;2024-03-22T14:14:26;11.20;99.90
21316;DHT22;10817;55.820;13.030;2024-03-22T14:16:54;14.30;99.90
21316;DHT22;10817;55.820;13.030;2024-03-22T14:19:20;13.00;99.90
21316;DHT22;10817;55.820;13.030;2024-03-22T14:21:47;13.20;99.90
21316;DHT22;10817;55.820;13.030;2024-03-22T14:24:14;15.60;99.90
21316;DHT22;10817;55.820;13.030;2024-03-22T14:26:41;13.50;99.90
21316;DHT22;10817;55.820;13.030;2024-03-22T14:29:08;12.90;99.90
21316;DHT22;10817;55.820;13.030;2024-03-22T14:31:35;13.50;99.90
21316;DHT22;10817;55.820;13.030;2024-03-22T14:34:06;14.20;57.40
21316;DHT22;10817;55.820;13.030;2024-03-22T14:36:33;14.00;50.90
21316;DHT22;10817;55.820;13.030;2024-03-22T14:38:58;13.80;53.70
21316;DHT22;10817;55.820;13.030;2024-03-22T14:41:27;13.90;42.70
21316;DHT22;10817;55.820;13.030;2024-03-22T14:43:52;17.00;26.30
21316;DHT22;10817;55.820;13.030;2024-03-22T14:46:20;14.00;26.00
21316;DHT22;10817;55.820;13.030;2024-03-22T14:48:50;14.30;19.20
21316;DHT22;10817;55.820;13.030;2024-03-22T14:51:17;17.20;1.00
21316;DHT22;10817;55.820;13.030;2024-03-22T14:53:43;15.00;1.00
21316;DHT22;10817;55.820;13.030;2024-03-22T14:56:10;14.60;1.00
21316;DHT22;10817;55.820;13.030;2024-03-22T14:58:39;14.70;1.00
21316;DHT22;10817;55.820;13.030;2024-03-22T15:01:06;12.70;18.20
21316;DHT22;10817;55.820;13.030;2024-03-22T15:03:32;12.10;52.40
21316;DHT22;10817;55.820;13.030;2024-03-22T15:06:00;11.60;87.20
21316;DHT22;10817;55.820;13.030;2024-03-22T15:08:26;11.40;84.10
21316;DHT22;10817;55.820;13.030;2024-03-22T15:10:54;11.10;99.90
21316;DHT22;10817;55.820;13.030;2024-03-22T15:13:20;10.90;99.90
21316;DHT22;10817;55.820;13.030;2024-03-22T15:15:53;10.60;99.90
21316;DHT22;10817;55.820;13.030;2024-03-22T15:18:19;10.40;99.90
21316;DHT22;10817;55.820;13.030;2024-03-22T15:20:47;10.10;99.90
21316;DHT22;10817;55.820;13.030;2024-03-22T15:23:13;10.10;99.90
21316;DHT22;10817;55.820;13.030;2024-03-22T15:25:40;10.90;99.90
21316;DHT22;10817;55.820;13.030;2024-03-22T15:28:06;10.10;99.90
21316;DHT22;10817;55.820;13.030;2024-03-22T15:30:33;10.20;99.90
21316;DHT22;10817;55.820;13.030;2024-03-22T15:33:00;10.40;99.90